Time;durP1;ratioP1;P1;durP2;ratioP2;P2;SDS_P1;SDS_P2;PMS_P1;PMS_P2;Temp;Humidity;BMP_temperature;BMP_pressure;BME280_temperature;BME280_humidity;BME280_pressure;Samples;Min_cycle;Max_cycle;Signal;HPM_P1;HPM_P2
2023/09/23 00:01:26;;;;;;;3.67;2.40;;;12.70;99.90;;;;;;5010627;28;20045;-72
2023/09/23 00:03:52;;;;;;;3.78;2.53;;;12.70;99.90;;;;;;4984648;28;20404;-73
2023/09/23 00:06:21;;;;;;;2.58;2.10;;;12.60;99.90;;;;;;5013708;28;20033;-73
2023/09/23 00:08:48;;;;;;;2.88;1.80;;;12.60;99.90;;;;;;4999464;28;20059;-72
2023/09/23 00:11:15;;;;;;;1.92;1.60;;;12.50;99.90;;;;;;5014200;28;20448;-72
2023/09/23 00:13:41;;;;;;;1.60;1.00;;;12.50;99.90;;;;;;5030525;28;20029;-72
2023/09/23 00:16:09;;;;;;;3.20;0.93;;;12.40;99.90;;;;;;5006601;28;20037;-73
2023/09/23 00:18:35;;;;;;;2.42;0.90;;;12.40;99.90;;;;;;5016076;28;20033;-71
2023/09/23 00:21:05;;;;;;;1.52;0.70;;;12.30;99.90;;;;;;5014357;28;20079;-72
2023/09/23 00:23:34;;;;;;;1.23;0.85;;;12.30;99.90;;;;;;5015736;28;20464;-72
2023/09/23 00:26:02;;;;;;;1.75;0.70;;;12.20;99.90;;;;;;4996794;28;20786;-72
2023/09/23 00:28:31;;;;;;;1.80;0.70;;;12.20;99.90;;;;;;4978128;28;20041;-73
2023/09/23 00:31:07;;;;;;;2.53;0.85;;;12.10;99.90;;;;;;5010170;28;20042;-72
2023/09/23 00:33:36;;;;;;;2.05;0.80;;;12.10;99.90;;;;;;5009198;28;20044;-72
2023/09/23 00:36:04;;;;;;;2.80;1.02;;;12.10;99.90;;;;;;4993509;28;20037;-71
2023/09/23 00:38:34;;;;;;;1.35;0.93;;;12.00;99.90;;;;;;5012387;28;20381;-73
2023/09/23 00:41:08;;;;;;;1.65;0.90;;;12.00;99.90;;;;;;5008514;28;20037;-72
2023/09/23 00:43:35;;;;;;;1.85;0.65;;;11.90;99.90;;;;;;4994671;28;20268;-72
2023/09/23 00:46:06;;;;;;;2.53;0.80;;;11.90;99.90;;;;;;5012895;28;20044;-71
2023/09/23 00:48:42;;;;;;;1.58;1.00;;;11.80;99.90;;;;;;4974777;28;20399;-72
2023/09/23 00:51:10;;;;;;;2.22;0.80;;;11.70;99.90;;;;;;5012525;28;20037;-72
2023/09/23 00:53:39;;;;;;;1.80;1.08;;;11.70;99.90;;;;;;5010867;28;20049;-72
2023/09/23 00:56:08;;;;;;;1.33;0.80;;;11.70;99.90;;;;;;5010531;28;20592;-72
2023/09/23 00:58:38;;;;;;;1.00;0.70;;;11.70;99.90;;;;;;4992897;28;20479;-71
2023/09/23 01:01:08;;;;;;;2.35;0.82;;;11.70;99.90;;;;;;4977937;28;20033;-71
2023/09/23 01:03:38;;;;;;;1.50;0.90;;;11.70;99.90;;;;;;4996272;28;20033;-71
2023/09/23 01:06:15;;;;;;;3.53;1.60;;;11.70;99.90;;;;;;5009766;28;20044;-72
2023/09/23 01:08:50;;;;;;;2.40;1.48;;;11.70;99.90;;;;;;5010526;28;20053;-73
2023/09/23 01:11:17;;;;;;;3.40;1.65;;;11.80;99.90;;;;;;5000158;28;20034;-72
2023/09/23 01:13:46;;;;;;;2.42;1.52;;;11.80;99.90;;;;;;5014964;28;20038;-72
2023/09/23 01:16:13;;;;;;;1.75;1.00;;;11.80;99.90;;;;;;5009878;28;20594;-72
2023/09/23 01:18:41;;;;;;;3.05;1.58;;;11.90;99.90;;;;;;4994484;28;20033;-71
2023/09/23 01:21:08;;;;;;;2.22;1.60;;;11.80;99.90;;;;;;4973534;28;20053;-72
2023/09/23 01:23:36;;;;;;;2.80;1.55;;;11.80;99.90;;;;;;4988925;28;20033;-72
2023/09/23 01:26:04;;;;;;;2.38;2.10;;;11.80;99.90;;;;;;4998879;28;20049;-72
2023/09/23 01:28:32;;;;;;;2.80;2.30;;;11.70;99.90;;;;;;5015986;28;20036;-72
2023/09/23 01:31:00;;;;;;;3.22;2.08;;;11.70;99.90;;;;;;4998497;28;20387;-73
2023/09/23 01:33:27;;;;;;;1.92;1.35;;;11.70;99.90;;;;;;4999767;28;20360;-72
2023/09/23 01:35:56;;;;;;;2.40;1.83;;;11.70;99.90;;;;;;5000909;28;20360;-72
2023/09/23 01:38:25;;;;;;;5.20;4.70;;;11.70;99.90;;;;;;5001663;28;20476;-72
2023/09/23 01:40:53;;;;;;;3.70;3.30;;;11.70;99.90;;;;;;5022396;28;20526;-72
2023/09/23 01:43:19;;;;;;;5.35;4.05;;;11.70;99.90;;;;;;5016474;28;20032;-72
2023/09/23 01:45:46;;;;;;;6.03;4.88;;;11.70;99.90;;;;;;4997416;28;20041;-72
2023/09/23 01:48:15;;;;;;;7.65;5.95;;;11.70;99.90;;;;;;4998954;28;20609;-72
2023/09/23 01:50:41;;;;;;;5.75;5.05;;;11.70;99.90;;;;;;5013811;28;20405;-72
2023/09/23 01:53:08;;;;;;;8.40;6.97;;;11.70;99.90;;;;;;4998046;28;21011;-72
2023/09/23 01:55:36;;;;;;;6.75;5.55;;;11.80;99.90;;;;;;5014490;28;20041;-72
2023/09/23 01:58:03;;;;;;;6.80;6.10;;;11.80;99.90;;;;;;4983012;28;20025;-72
2023/09/23 02:00:33;;;;;;;5.97;5.35;;;11.80;99.90;;;;;;4998511;28;20036;-72
2023/09/23 02:03:00;;;;;;;8.52;7.47;;;11.90;99.90;;;;;;5013326;28;20037;-72
2023/09/23 02:05:27;;;;;;;11.25;9.70;;;11.90;99.90;;;;;;4995555;28;20054;-71
2023/09/23 02:07:54;;;;;;;11.02;9.23;;;11.90;99.90;;;;;;5012791;28;20041;-72
2023/09/23 02:10:24;;;;;;;9.70;8.52;;;12.00;99.90;;;;;;5013806;28;20037;-71
2023/09/23 02:12:50;;;;;;;9.48;8.18;;;12.00;99.90;;;;;;4997365;28;20053;-72
2023/09/23 02:15:17;;;;;;;10.65;9.55;;;12.10;99.90;;;;;;4995898;28;20487;-72
2023/09/23 02:17:45;;;;;;;10.85;9.07;;;12.10;99.90;;;;;;5013646;28;20039;-72
2023/09/23 02:20:18;;;;;;;12.98;10.57;;;12.10;99.90;;;;;;5014583;28;20033;-71
2023/09/23 02:22:50;;;;;;;12.02;10.50;;;12.20;99.90;;;;;;4995887;28;20033;-72
2023/09/23 02:25:17;;;;;;;12.32;10.70;;;12.20;99.90;;;;;;5013658;28;20032;-72
2023/09/23 02:27:44;;;;;;;13.43;11.05;;;12.30;99.90;;;;;;5013500;28;20038;-72
2023/09/23 02:30:12;;;;;;;14.45;12.45;;;12.30;99.90;;;;;;5012603;28;20041;-72
2023/09/23 02:32:49;;;;;;;17.75;14.57;;;12.30;99.90;;;;;;5012094;28;20034;-71
2023/09/23 02:35:16;;;;;;;15.35;13.43;;;12.40;99.90;;;;;;4985339;28;20036;-71
2023/09/23 02:37:45;;;;;;;19.13;16.38;;;12.40;99.90;;;;;;5013023;28;20029;-72
2023/09/23 02:40:14;;;;;;;21.30;17.02;;;12.40;99.90;;;;;;5011586;28;20266;-72
2023/09/23 02:42:42;;;;;;;19.65;16.48;;;12.40;99.90;;;;;;4994226;28;20056;-72
2023/09/23 02:45:10;;;;;;;17.15;15.30;;;12.40;99.90;;;;;;5028545;28;20040;-72
2023/09/23 02:47:38;;;;;;;22.88;19.27;;;12.40;99.90;;;;;;5006649;28;20028;-73
2023/09/23 02:50:15;;;;;;;24.30;20.08;;;12.40;99.90;;;;;;5011551;28;20036;-72
2023/09/23 02:52:44;;;;;;;24.02;21.42;;;12.40;99.90;;;;;;4997643;28;20033;-71
2023/09/23 02:55:12;;;;;;;25.55;20.42;;;12.40;99.90;;;;;;4980581;28;20383;-72
2023/09/23 02:57:40;;;;;;;23.75;20.52;;;12.50;99.90;;;;;;4983041;28;20519;-71
2023/09/23 03:00:17;;;;;;;28.65;24.20;;;12.50;99.90;;;;;;4996578;28;20033;-71
2023/09/23 03:02:52;;;;;;;25.13;22.30;;;12.40;99.90;;;;;;5009336;28;20350;-72
2023/09/23 03:05:25;;;;;;;27.42;23.48;;;12.50;99.90;;;;;;5010989;28;20037;-72
2023/09/23 03:07:58;;;;;;;31.13;26.00;;;12.50;99.90;;;;;;4996296;28;20502;-72
2023/09/23 03:10:32;;;;;;;39.60;29.30;;;12.50;99.90;;;;;;5014530;28;20041;-71
2023/09/23 03:13:04;;;;;;;26.88;22.00;;;12.50;99.90;;;;;;5008264;28;20510;-72
2023/09/23 03:15:44;;;;;;;26.90;23.50;;;12.50;99.90;;;;;;4996125;28;20036;-71
2023/09/23 03:18:14;;;;;;;27.63;23.75;;;12.50;99.90;;;;;;5012484;28;20037;-72
2023/09/23 03:20:41;;;;;;;30.40;26.42;;;12.50;99.90;;;;;;4981078;28;20096;-72
2023/09/23 03:23:10;;;;;;;29.77;23.83;;;12.50;99.90;;;;;;5012886;28;20041;-73
2023/09/23 03:25:44;;;;;;;27.35;22.90;;;12.50;99.90;;;;;;5013653;28;20026;-72
2023/09/23 03:28:15;;;;;;;26.42;21.48;;;12.50;99.90;;;;;;4995102;28;20106;-72
2023/09/23 03:30:48;;;;;;;23.45;19.65;;;12.60;99.90;;;;;;5012266;28;20034;-71
2023/09/23 03:33:20;;;;;;;31.23;25.67;;;12.60;99.90;;;;;;4994538;28;20456;-72
2023/09/23 03:35:47;;;;;;;30.52;22.38;;;12.50;99.90;;;;;;5016451;28;20036;-72
2023/09/23 03:38:16;;;;;;;31.65;25.75;;;12.60;99.90;;;;;;5001631;28;20554;-73
2023/09/23 03:40:53;;;;;;;26.98;22.45;;;12.60;99.90;;;;;;5015767;28;20479;-71
2023/09/23 03:43:21;;;;;;;25.33;21.25;;;12.50;99.90;;;;;;5016192;28;20033;-73
2023/09/23 03:45:48;;;;;;;25.73;21.67;;;12.60;99.90;;;;;;5014093;28;20033;-73
2023/09/23 03:48:15;;;;;;;23.95;20.65;;;12.50;99.90;;;;;;5000954;28;20519;-71
2023/09/23 03:50:42;;;;;;;25.27;21.02;;;12.60;99.90;;;;;;4982550;28;20038;-72
2023/09/23 03:53:12;;;;;;;28.67;23.10;;;12.60;99.90;;;;;;5016208;28;20036;-72
2023/09/23 03:55:39;;;;;;;25.95;20.63;;;12.60;99.90;;;;;;4982444;28;20033;-72
2023/09/23 03:58:05;;;;;;;29.65;25.00;;;12.60;99.90;;;;;;5017198;28;20033;-72
2023/09/23 04:00:35;;;;;;;28.27;22.80;;;12.60;99.90;;;;;;5014640;28;20037;-72
2023/09/23 04:03:01;;;;;;;29.40;25.15;;;12.60;99.90;;;;;;5013881;28;20879;-73
2023/09/23 04:05:31;;;;;;;31.25;24.58;;;12.60;99.90;;;;;;5015933;28;20037;-72
2023/09/23 04:07:58;;;;;;;25.83;22.75;;;12.60;99.90;;;;;;5000322;28;20030;-72
2023/09/23 04:10:24;;;;;;;29.55;24.83;;;12.60;99.90;;;;;;5016177;28;20357;-71
2023/09/23 04:12:53;;;;;;;28.30;23.42;;;12.60;99.90;;;;;;4999616;28;20033;-72
2023/09/23 04:15:19;;;;;;;27.85;22.45;;;12.60;99.90;;;;;;5013491;28;20021;-73
2023/09/23 04:17:46;;;;;;;28.10;22.08;;;12.60;99.90;;;;;;5033538;28;20048;-72
2023/09/23 04:20:14;;;;;;;26.90;21.38;;;12.60;99.90;;;;;;4981643;28;20464;-71
2023/09/23 04:22:42;;;;;;;26.83;20.48;;;12.60;99.90;;;;;;4998250;28;20121;-73
2023/09/23 04:25:10;;;;;;;27.95;21.92;;;12.60;99.90;;;;;;5018609;28;20397;-71
2023/09/23 04:27:37;;;;;;;27.63;22.33;;;12.60;99.90;;;;;;5011771;28;20384;-72
2023/09/23 04:30:11;;;;;;;27.25;21.52;;;12.60;99.90;;;;;;5001196;28;20039;-72
2023/09/23 04:32:40;;;;;;;30.88;24.17;;;12.60;99.90;;;;;;5013493;28;20025;-72
2023/09/23 04:35:07;;;;;;;26.65;22.27;;;12.60;99.90;;;;;;4999447;28;20037;-72
2023/09/23 04:37:37;;;;;;;27.70;23.05;;;12.60;99.90;;;;;;4983201;28;20479;-72
2023/09/23 04:40:11;;;;;;;31.65;26.08;;;12.60;99.90;;;;;;4970809;28;20034;-72
2023/09/23 04:42:38;;;;;;;26.38;23.25;;;12.60;99.90;;;;;;4972914;28;20045;-73
2023/09/23 04:45:06;;;;;;;27.35;22.92;;;12.50;99.90;;;;;;5014199;28;20041;-72
2023/09/23 04:47:32;;;;;;;28.23;22.52;;;12.50;99.90;;;;;;5016365;28;20041;-72
2023/09/23 04:50:00;;;;;;;30.02;23.98;;;12.60;99.90;;;;;;5011580;28;20040;-72
2023/09/23 04:52:29;;;;;;;27.35;22.70;;;12.60;99.90;;;;;;4981058;28;20603;-72
2023/09/23 04:54:55;;;;;;;23.65;20.50;;;12.60;99.90;;;;;;5000789;28;20037;-72
2023/09/23 04:57:22;;;;;;;28.63;23.33;;;12.60;99.90;;;;;;4997807;28;20029;-72
2023/09/23 04:59:49;;;;;;;29.98;24.95;;;12.60;99.90;;;;;;5013878;28;20384;-72
2023/09/23 05:02:17;;;;;;;36.92;28.52;;;12.60;99.90;;;;;;4997566;28;20030;-73
2023/09/23 05:04:45;;;;;;;28.30;22.85;;;12.60;99.90;;;;;;4979242;28;20191;-72
2023/09/23 05:07:14;;;;;;;26.35;23.23;;;12.60;99.90;;;;;;5013457;28;20618;-72
2023/09/23 05:09:41;;;;;;;25.90;21.25;;;12.60;99.90;;;;;;4997382;28;20056;-72
2023/09/23 05:12:09;;;;;;;28.70;24.98;;;12.60;99.90;;;;;;5011288;28;20380;-73
2023/09/23 05:14:35;;;;;;;33.88;25.88;;;12.60;99.90;;;;;;4996148;28;20060;-73
2023/09/23 05:17:05;;;;;;;26.88;23.98;;;12.60;99.90;;;;;;5007808;28;20060;-72
2023/09/23 05:19:32;;;;;;;33.85;25.50;;;12.60;99.90;;;;;;4990164;28;20363;-73
2023/09/23 05:21:59;;;;;;;26.48;23.67;;;12.60;99.90;;;;;;4982511;28;20041;-73
2023/09/23 05:24:26;;;;;;;27.08;23.42;;;12.60;99.90;;;;;;5000299;28;20426;-72
2023/09/23 05:26:55;;;;;;;23.40;20.90;;;12.60;99.90;;;;;;5000479;28;20036;-72
2023/09/23 05:29:24;;;;;;;24.58;21.98;;;12.60;99.90;;;;;;4997547;28;20041;-73
2023/09/23 05:31:51;;;;;;;25.85;22.70;;;12.60;99.90;;;;;;5018434;28;21746;-73
2023/09/23 05:34:18;;;;;;;27.33;22.83;;;12.60;99.90;;;;;;5014135;28;20037;-72
2023/09/23 05:36:48;;;;;;;25.08;22.38;;;12.60;99.90;;;;;;5001333;28;20041;-73
2023/09/23 05:39:18;;;;;;;27.52;22.55;;;12.60;99.90;;;;;;5015895;28;20343;-72
2023/09/23 05:41:45;;;;;;;23.55;21.02;;;12.60;99.90;;;;;;4987990;28;20036;-73
2023/09/23 05:44:13;;;;;;;23.85;21.13;;;12.50;99.90;;;;;;5003745;28;20026;-72
2023/09/23 05:46:42;;;;;;;19.65;17.65;;;12.60;99.90;;;;;;4982248;28;20396;-72
2023/09/23 05:49:08;;;;;;;24.08;21.40;;;12.60;99.90;;;;;;4994780;28;20045;-73
2023/09/23 05:51:35;;;;;;;23.40;21.05;;;12.60;99.90;;;;;;5013129;28;20354;-72
2023/09/23 05:54:02;;;;;;;20.10;18.08;;;12.60;99.90;;;;;;5030993;28;20492;-72
2023/09/23 05:56:28;;;;;;;26.38;23.52;;;12.60;99.90;;;;;;5012223;28;20038;-73
2023/09/23 05:58:54;;;;;;;22.33;19.88;;;12.50;99.90;;;;;;5005211;28;20041;-72
2023/09/23 06:01:21;;;;;;;19.58;17.45;;;12.60;99.90;;;;;;5011299;28;20048;-73
2023/09/23 06:03:49;;;;;;;17.80;16.00;;;12.60;99.90;;;;;;5015863;28;20033;-73
2023/09/23 06:06:15;;;;;;;20.10;17.63;;;12.60;99.90;;;;;;4993976;28;20041;-72
2023/09/23 06:08:42;;;;;;;15.50;13.88;;;12.60;99.90;;;;;;5009667;28;20040;-72
2023/09/23 06:11:11;;;;;;;19.58;15.60;;;12.60;99.90;;;;;;4983765;28;20342;-72
2023/09/23 06:13:37;;;;;;;21.50;18.67;;;12.60;99.90;;;;;;4996409;28;20045;-73
2023/09/23 06:16:05;;;;;;;26.40;22.20;;;12.70;99.90;;;;;;4981124;28;20041;-72
2023/09/23 06:18:33;;;;;;;20.45;17.92;;;12.70;99.90;;;;;;4997312;28;20044;-72
2023/09/23 06:21:06;;;;;;;20.20;17.73;;;12.70;99.90;;;;;;4984001;28;20069;-71
2023/09/23 06:23:32;;;;;;;24.85;21.40;;;12.80;99.90;;;;;;4998195;28;20593;-71
2023/09/23 06:26:02;;;;;;;22.63;18.17;;;12.80;99.90;;;;;;4971784;28;20052;-71
2023/09/23 06:28:29;;;;;;;18.95;15.45;;;12.80;99.90;;;;;;4976035;28;20046;-71
2023/09/23 06:30:56;;;;;;;18.45;15.15;;;12.80;99.90;;;;;;4969023;28;20049;-72
2023/09/23 06:33:23;;;;;;;16.85;15.02;;;12.90;99.90;;;;;;4997218;28;20488;-71
2023/09/23 06:35:49;;;;;;;17.48;15.60;;;12.90;99.90;;;;;;4981145;28;20040;-72
2023/09/23 06:38:16;;;;;;;15.27;13.68;;;12.90;99.90;;;;;;4996838;28;20052;-71
2023/09/23 06:40:43;;;;;;;13.77;11.80;;;13.00;99.90;;;;;;5012755;28;20029;-71
2023/09/23 06:43:09;;;;;;;15.75;12.90;;;13.00;99.90;;;;;;5011096;28;20034;-72
2023/09/23 06:45:36;;;;;;;13.32;11.98;;;13.00;99.90;;;;;;4995989;28;20036;-72
2023/09/23 06:48:03;;;;;;;14.18;12.75;;;13.10;99.90;;;;;;5014347;28;21446;-71
2023/09/23 06:50:29;;;;;;;14.35;12.85;;;13.10;99.90;;;;;;4973365;28;20038;-71
2023/09/23 06:52:57;;;;;;;14.30;11.18;;;13.20;99.90;;;;;;5013169;28;20368;-71
2023/09/23 06:55:23;;;;;;;12.32;11.15;;;13.30;99.90;;;;;;4997485;28;20030;-72
2023/09/23 06:57:50;;;;;;;12.95;11.65;;;13.30;99.90;;;;;;4998915;28;20037;-71
2023/09/23 07:00:16;;;;;;;14.70;12.55;;;13.30;99.90;;;;;;5014406;28;20452;-72
2023/09/23 07:02:43;;;;;;;13.60;10.75;;;13.30;99.90;;;;;;5012929;28;20489;-72
2023/09/23 07:05:10;;;;;;;15.27;13.25;;;13.30;99.90;;;;;;4994910;28;20038;-72
2023/09/23 07:07:36;;;;;;;13.02;11.68;;;13.40;99.90;;;;;;4997586;28;20034;-72
2023/09/23 07:10:04;;;;;;;13.38;11.95;;;13.40;99.90;;;;;;5012698;28;20427;-71
2023/09/23 07:12:30;;;;;;;13.35;11.77;;;13.40;99.90;;;;;;5014187;28;20063;-72
2023/09/23 07:14:57;;;;;;;14.77;12.05;;;13.40;99.90;;;;;;4996239;28;20041;-72
2023/09/23 07:17:25;;;;;;;11.65;10.45;;;13.50;99.90;;;;;;5013035;28;20041;-72
2023/09/23 07:19:51;;;;;;;12.30;10.77;;;13.50;99.90;;;;;;4997174;28;20045;-72
2023/09/23 07:22:18;;;;;;;12.68;11.48;;;13.50;99.90;;;;;;4996308;28;20025;-72
2023/09/23 07:24:44;;;;;;;13.20;11.90;;;13.60;99.90;;;;;;4980018;28;20047;-72
2023/09/23 07:27:10;;;;;;;13.35;11.90;;;13.60;99.90;;;;;;5013830;28;20018;-72
2023/09/23 07:29:37;;;;;;;15.23;13.63;;;13.70;99.90;;;;;;4997721;28;20037;-71
2023/09/23 07:32:04;;;;;;;12.48;11.27;;;13.70;99.90;;;;;;4997620;28;20460;-72
2023/09/23 07:34:30;;;;;;;13.50;12.13;;;13.70;99.90;;;;;;4998222;28;20038;-72
2023/09/23 07:36:57;;;;;;;12.07;10.88;;;13.80;99.90;;;;;;4999152;28;20029;-72
2023/09/23 07:39:24;;;;;;;14.93;11.13;;;13.80;99.90;;;;;;4994410;28;20213;-72
2023/09/23 07:41:50;;;;;;;10.55;9.18;;;13.80;99.90;;;;;;5012774;28;20032;-72
2023/09/23 07:44:16;;;;;;;10.85;9.85;;;13.80;99.90;;;;;;5012841;28;20037;-72
2023/09/23 07:46:43;;;;;;;11.30;8.65;;;13.80;99.90;;;;;;4979769;28;20034;-73
2023/09/23 07:49:09;;;;;;;10.68;7.63;;;13.90;99.90;;;;;;4992027;28;20034;-72
2023/09/23 07:51:37;;;;;;;10.20;8.13;;;13.90;99.90;;;;;;5014424;28;20044;-72
2023/09/23 07:54:03;;;;;;;11.20;8.15;;;13.90;99.90;;;;;;5012197;28;20492;-72
2023/09/23 07:56:30;;;;;;;12.55;9.80;;;14.00;99.90;;;;;;5014149;28;20029;-71
2023/09/23 07:58:56;;;;;;;8.55;7.72;;;14.00;99.90;;;;;;5011552;28;20033;-72
2023/09/23 08:01:22;;;;;;;8.77;7.07;;;14.10;99.90;;;;;;5011606;28;20025;-72
2023/09/23 08:03:50;;;;;;;9.85;8.95;;;14.10;99.90;;;;;;5012469;28;20043;-73
2023/09/23 08:06:17;;;;;;;9.20;8.30;;;14.20;99.90;;;;;;4996235;28;20139;-72
2023/09/23 08:08:43;;;;;;;8.90;6.70;;;14.30;99.90;;;;;;5012173;28;20038;-72
2023/09/23 08:11:10;;;;;;;8.25;7.45;;;14.40;99.90;;;;;;4997755;28;20041;-72
2023/09/23 08:13:36;;;;;;;6.50;5.95;;;14.40;99.90;;;;;;5011538;28;22516;-71
2023/09/23 08:16:03;;;;;;;10.73;7.05;;;14.40;99.90;;;;;;5007018;28;20321;-72
2023/09/23 08:18:29;;;;;;;7.55;5.55;;;14.40;99.90;;;;;;5014195;28;20034;-72
2023/09/23 08:21:00;;;;;;;7.60;5.78;;;14.50;99.90;;;;;;4996837;28;20032;-73
2023/09/23 08:23:27;;;;;;;8.70;6.47;;;14.60;99.90;;;;;;5017123;28;20036;-72
2023/09/23 08:25:54;;;;;;;7.65;5.72;;;14.70;99.90;;;;;;5032845;28;20033;-71
2023/09/23 08:28:20;;;;;;;6.88;6.25;;;14.80;99.90;;;;;;5016010;28;20457;-71
2023/09/23 08:30:49;;;;;;;8.65;5.47;;;15.00;99.90;;;;;;4998002;28;20013;-73
2023/09/23 08:33:16;;;;;;;7.55;6.10;;;15.30;99.90;;;;;;5015626;28;20038;-71
2023/09/23 08:35:47;;;;;;;10.68;6.15;;;15.50;99.90;;;;;;5016045;28;20037;-72
2023/09/23 08:38:14;;;;;;;7.90;6.15;;;15.70;99.90;;;;;;4999003;28;20033;-72
2023/09/23 08:40:43;;;;;;;5.53;4.03;;;15.90;99.90;;;;;;4981097;28;20490;-73
2023/09/23 08:43:11;;;;;;;6.35;4.97;;;16.10;99.90;;;;;;4995456;28;20377;-72
2023/09/23 08:45:46;;;;;;;7.25;4.15;;;16.20;99.90;;;;;;5013596;28;20502;-72
2023/09/23 08:48:13;;;;;;;5.05;3.47;;;16.10;99.90;;;;;;5005997;28;20029;-72
2023/09/23 08:50:46;;;;;;;6.53;3.88;;;16.10;99.90;;;;;;5016074;28;20581;-71
2023/09/23 08:53:19;;;;;;;5.90;3.42;;;16.00;99.90;;;;;;5011944;28;20633;-72
2023/09/23 08:55:47;;;;;;;4.78;3.28;;;16.00;99.90;;;;;;4996385;28;20025;-72
2023/09/23 08:58:13;;;;;;;5.40;3.80;;;15.90;99.90;;;;;;5008842;28;20037;-72
2023/09/23 09:00:45;;;;;;;6.88;3.47;;;15.90;99.90;;;;;;5007610;28;20475;-71
2023/09/23 09:03:12;;;;;;;7.07;3.63;;;15.90;99.90;;;;;;4993810;28;20057;-72
2023/09/23 09:05:39;;;;;;;5.30;3.08;;;15.90;99.90;;;;;;4998321;28;20034;-71
2023/09/23 09:08:06;;;;;;;5.32;3.03;;;15.90;99.90;;;;;;4985654;28;20527;-72
2023/09/23 09:10:33;;;;;;;4.53;3.45;;;15.90;99.90;;;;;;4999242;28;20049;-71
2023/09/23 09:13:03;;;;;;;5.10;2.75;;;15.90;99.90;;;;;;4999348;28;20022;-72
2023/09/23 09:15:32;;;;;;;4.88;2.45;;;15.90;99.90;;;;;;5017935;28;20379;-71
2023/09/23 09:18:01;;;;;;;7.35;2.95;;;16.00;99.90;;;;;;5000507;28;20025;-72
2023/09/23 09:20:31;;;;;;;6.47;3.50;;;16.10;99.90;;;;;;5013778;28;20025;-71
2023/09/23 09:22:58;;;;;;;6.15;2.45;;;16.20;99.90;;;;;;5016187;28;20034;-72
2023/09/23 09:25:25;;;;;;;5.15;2.83;;;16.30;99.90;;;;;;5016455;28;20036;-71
2023/09/23 09:27:52;;;;;;;6.45;3.53;;;16.30;99.90;;;;;;5014786;28;20408;-71
2023/09/23 09:30:19;;;;;;;6.63;2.47;;;16.30;99.90;;;;;;5014769;28;20116;-72
2023/09/23 09:32:47;;;;;;;4.85;2.80;;;16.10;99.90;;;;;;4979387;28;20104;-71
2023/09/23 09:35:17;;;;;;;5.88;2.30;;;16.00;99.90;;;;;;4973520;28;20021;-73
2023/09/23 09:37:46;;;;;;;6.68;3.50;;;15.80;99.90;;;;;;4998414;28;20041;-72
2023/09/23 09:40:18;;;;;;;5.18;2.67;;;15.70;99.90;;;;;;5014286;28;20038;-72
2023/09/23 09:42:54;;;;;;;3.53;2.30;;;15.60;99.90;;;;;;4999580;28;20033;-72
2023/09/23 09:45:24;;;;;;;5.28;2.88;;;15.50;99.90;;;;;;5009369;28;20040;-72
2023/09/23 09:48:00;;;;;;;5.95;3.03;;;15.60;99.90;;;;;;4999902;28;20044;-72
2023/09/23 09:50:28;;;;;;;4.00;2.60;;;15.60;99.90;;;;;;4981277;28;20038;-72
2023/09/23 09:52:54;;;;;;;3.40;1.95;;;15.50;99.90;;;;;;4997487;28;20018;-72
2023/09/23 09:55:24;;;;;;;6.55;2.33;;;15.60;99.90;;;;;;5014636;28;20025;-72
2023/09/23 09:57:54;;;;;;;4.70;2.30;;;15.60;99.90;;;;;;4982528;28;20041;-72
2023/09/23 10:00:36;;;;;;;4.53;2.45;;;15.60;99.90;;;;;;5001649;28;20075;-71
2023/09/23 10:03:06;;;;;;;8.23;4.15;;;15.60;99.90;;;;;;4996312;28;20029;-72
2023/09/23 10:05:42;;;;;;;4.70;2.13;;;15.60;99.90;;;;;;4982089;28;20041;-71
2023/09/23 10:08:13;;;;;;;7.00;3.17;;;15.70;99.90;;;;;;4981439;28;20380;-72
2023/09/23 10:10:47;;;;;;;7.50;2.78;;;15.70;99.90;;;;;;5013865;28;20049;-72
2023/09/23 10:13:22;;;;;;;8.82;4.45;;;15.70;99.90;;;;;;4995996;28;20758;-72
2023/09/23 10:15:48;;;;;;;4.40;1.85;;;15.70;99.90;;;;;;4981851;28;20424;-72
2023/09/23 10:18:19;;;;;;;6.10;3.30;;;15.80;99.90;;;;;;4969704;28;20026;-71
2023/09/23 10:20:56;;;;;;;5.82;3.70;;;15.90;99.90;;;;;;4997539;28;20038;-72
2023/09/23 10:23:22;;;;;;;5.97;2.95;;;15.90;99.90;;;;;;4997925;28;20397;-72
2023/09/23 10:25:51;;;;;;;7.05;3.53;;;15.90;99.90;;;;;;5014163;28;20464;-72
2023/09/23 10:28:28;;;;;;;5.30;2.90;;;16.00;99.90;;;;;;4999120;28;20037;-72
2023/09/23 10:30:58;;;;;;;8.15;4.50;;;16.00;99.90;;;;;;4986340;28;20092;-72
2023/09/23 10:33:26;;;;;;;7.35;4.03;;;16.10;99.90;;;;;;4996979;28;20045;-72
2023/09/23 10:35:53;;;;;;;5.93;3.05;;;16.10;99.90;;;;;;4999119;28;20033;-72
2023/09/23 10:38:21;;;;;;;7.57;3.58;;;16.30;99.90;;;;;;4998690;28;20593;-71
2023/09/23 10:40:53;;;;;;;6.03;3.70;;;16.40;99.90;;;;;;4996599;28;20053;-72
2023/09/23 10:43:22;;;;;;;4.72;3.30;;;16.50;99.90;;;;;;4998909;28;20491;-72
2023/09/23 10:45:51;;;;;;;10.05;5.38;;;16.60;99.90;;;;;;5011075;28;20038;-72
2023/09/23 10:48:17;;;;;;;7.95;4.45;;;16.70;99.90;;;;;;5015356;28;20495;-72
2023/09/23 10:50:44;;;;;;;5.95;3.70;;;16.70;99.90;;;;;;4997968;28;20920;-72
2023/09/23 10:53:12;;;;;;;8.07;4.38;;;16.70;99.90;;;;;;4986142;28;20026;-72
2023/09/23 10:55:42;;;;;;;6.22;3.40;;;16.90;99.90;;;;;;4983769;28;20119;-72
2023/09/23 10:58:09;;;;;;;7.75;3.85;;;17.00;99.90;;;;;;5013340;28;20026;-72
2023/09/23 11:00:37;;;;;;;7.75;4.15;;;17.10;99.90;;;;;;5011826;28;20113;-72
2023/09/23 11:03:09;;;;;;;6.45;4.40;;;17.10;99.90;;;;;;4981789;28;20025;-72
2023/09/23 11:05:37;;;;;;;7.10;4.18;;;17.10;99.90;;;;;;5016373;28;20033;-72
2023/09/23 11:08:12;;;;;;;6.60;4.20;;;17.20;99.90;;;;;;4996126;28;20021;-73
2023/09/23 11:10:44;;;;;;;5.45;3.13;;;17.40;99.90;;;;;;4996148;28;20033;-73
2023/09/23 11:13:13;;;;;;;3.83;2.88;;;17.70;99.90;;;;;;4996957;28;20037;-72
2023/09/23 11:15:46;;;;;;;6.90;3.22;;;17.80;99.90;;;;;;4995617;28;20444;-73
2023/09/23 11:18:15;;;;;;;8.13;3.53;;;17.80;99.90;;;;;;5008103;28;20403;-73
2023/09/23 11:20:47;;;;;;;7.53;3.08;;;17.80;99.90;;;;;;4992170;28;20100;-73
2023/09/23 11:23:14;;;;;;;7.57;2.38;;;17.70;99.90;;;;;;5005431;28;20029;-73
2023/09/23 11:25:43;;;;;;;4.22;2.42;;;17.70;99.90;;;;;;5007725;28;20440;-73
2023/09/23 11:28:21;;;;;;;4.30;2.17;;;17.60;99.90;;;;;;5012211;28;20571;-73
2023/09/23 11:30:49;;;;;;;6.28;2.53;;;17.50;99.90;;;;;;4995927;28;20033;-73
2023/09/23 11:33:15;;;;;;;4.38;2.88;;;17.30;99.90;;;;;;5001225;28;20399;-73
2023/09/23 11:35:43;;;;;;;7.82;3.95;;;17.20;99.90;;;;;;4993890;28;20045;-73
2023/09/23 11:38:10;;;;;;;6.93;4.07;;;17.00;99.90;;;;;;4975590;28;20033;-73
2023/09/23 11:40:37;;;;;;;5.47;3.72;;;16.80;99.90;;;;;;4988628;28;20029;-73
2023/09/23 11:43:04;;;;;;;3.67;2.80;;;16.70;99.90;;;;;;4978405;28;20037;-73
2023/09/23 11:45:32;;;;;;;7.18;4.40;;;16.50;99.90;;;;;;5010351;28;20554;-73
2023/09/23 11:47:59;;;;;;;5.82;4.40;;;16.40;99.90;;;;;;5011212;28;20045;-73
2023/09/23 11:50:26;;;;;;;7.75;4.25;;;16.30;99.90;;;;;;5006175;28;20042;-73
2023/09/23 11:52:53;;;;;;;5.65;3.45;;;16.20;99.90;;;;;;4994744;28;20037;-73
2023/09/23 11:55:22;;;;;;;7.63;4.18;;;16.20;99.90;;;;;;5011885;28;20037;-73
2023/09/23 11:57:49;;;;;;;5.35;3.85;;;16.10;99.90;;;;;;4998929;28;20042;-72
2023/09/23 12:00:16;;;;;;;5.63;4.18;;;16.30;99.90;;;;;;5014218;28;20411;-73
2023/09/23 12:02:42;;;;;;;5.10;4.60;;;16.70;99.90;;;;;;4998891;28;20046;-73
2023/09/23 12:05:16;;;;;;;5.70;4.95;;;17.10;99.90;;;;;;5015080;28;20048;-73
2023/09/23 12:07:46;;;;;;;4.20;3.80;;;17.70;99.90;;;;;;4997810;28;20050;-73
2023/09/23 12:10:16;;;;;;;7.15;4.80;;;18.00;99.90;;;;;;5016595;28;20037;-73
2023/09/23 12:12:45;;;;;;;8.00;4.82;;;18.20;99.90;;;;;;5014942;28;20374;-73
2023/09/23 12:15:11;;;;;;;5.38;3.20;;;18.60;99.90;;;;;;4997929;28;20128;-73
2023/09/23 12:17:38;;;;;;;5.45;3.20;;;18.90;99.90;;;;;;4998546;28;20080;-72
2023/09/23 12:20:11;;;;;;;7.35;3.13;;;19.20;99.90;;;;;;5013796;28;20040;-73
2023/09/23 12:22:41;;;;;;;7.18;2.78;;;19.40;99.90;;;;;;5012236;28;20377;-73
2023/09/23 12:25:07;;;;;;;5.32;2.90;;;19.70;99.90;;;;;;4980881;28;20048;-73
2023/09/23 12:27:34;;;;;;;4.32;1.80;;;20.40;99.90;;;;;;5012676;28;20412;-73
2023/09/23 12:30:00;;;;;;;2.75;1.00;;;20.90;99.90;;;;;;4998077;28;20048;-73
2023/09/23 12:32:27;;;;;;;3.95;1.65;;;20.80;99.90;;;;;;4997177;28;20375;-73
2023/09/23 12:34:53;;;;;;;3.15;1.20;;;20.60;99.90;;;;;;5009977;28;20067;-73
2023/09/23 12:37:20;;;;;;;4.30;0.90;;;20.50;99.90;;;;;;5015150;28;20494;-73
2023/09/23 12:39:46;;;;;;;2.85;0.90;;;20.60;99.90;;;;;;5014369;28;20042;-73
2023/09/23 12:42:14;;;;;;;2.42;0.80;;;20.70;99.90;;;;;;5016123;28;20041;-73
2023/09/23 12:44:41;;;;;;;2.45;0.85;;;21.10;99.90;;;;;;4999238;28;20038;-73